Terminal Aerodrome Forecast
Issued by NWS

Home | Current Version | Previous Version | Text Only | Print | Product List | Glossary On
Versions: 1 2 3 4 5 6 7 8 9 10 11 12 13
000
FTAK31 PAJN 302300
TAFAPG
TAF
PAPG 302321Z 0100/0124 06005KT P6SM VCSH SCT025 BKN050
     FM010300 VRB03KT P6SM VCSH SCT040 BKN070
     FM011700 05007KT P6SM SCT040 BKN070
      AMD LTD TO CLD VIS AND WIND 0106/0115=

USA.gov is the U.S. government's official web portal to all federal, state and local government web resources and services.